sensor_id;sensor_type;location;lat;lon;timestamp;P1;durP1;ratioP1;P2;durP2;ratioP2
7406;SDS011;3745;56.964;24.128;2023-04-03T00:01:31;1.60;;;1.30;;
7406;SDS011;3745;56.964;24.128;2023-04-03T00:03:56;1.20;;;1.10;;
7406;SDS011;3745;56.964;24.128;2023-04-03T00:06:24;1.83;;;0.90;;
7406;SDS011;3745;56.964;24.128;2023-04-03T00:08:50;1.20;;;1.20;;
7406;SDS011;3745;56.964;24.128;2023-04-03T00:11:15;2.63;;;1.27;;
7406;SDS011;3745;56.964;24.128;2023-04-03T00:13:42;1.93;;;1.10;;
7406;SDS011;3745;56.964;24.128;2023-04-03T00:16:08;1.80;;;1.20;;
7406;SDS011;3745;56.964;24.128;2023-04-03T00:18:35;1.13;;;1.03;;
7406;SDS011;3745;56.964;24.128;2023-04-03T00:21:02;1.07;;;0.90;;
7406;SDS011;3745;56.964;24.128;2023-04-03T00:23:28;1.45;;;1.00;;
7406;SDS011;3745;56.964;24.128;2023-04-03T00:25:54;2.17;;;1.00;;
7406;SDS011;3745;56.964;24.128;2023-04-03T00:28:20;0.90;;;0.90;;
7406;SDS011;3745;56.964;24.128;2023-04-03T00:30:46;1.20;;;1.10;;
7406;SDS011;3745;56.964;24.128;2023-04-03T00:33:14;0.87;;;0.87;;
7406;SDS011;3745;56.964;24.128;2023-04-03T00:35:40;2.70;;;1.40;;
7406;SDS011;3745;56.964;24.128;2023-04-03T00:38:05;1.20;;;1.10;;
7406;SDS011;3745;56.964;24.128;2023-04-03T00:40:36;1.20;;;1.20;;
7406;SDS011;3745;56.964;24.128;2023-04-03T00:43:08;2.10;;;1.20;;
7406;SDS011;3745;56.964;24.128;2023-04-03T00:45:38;1.17;;;1.10;;
7406;SDS011;3745;56.964;24.128;2023-04-03T00:48:11;1.50;;;0.83;;
7406;SDS011;3745;56.964;24.128;2023-04-03T00:50:41;1.13;;;1.00;;
7406;SDS011;3745;56.964;24.128;2023-04-03T00:53:10;1.23;;;0.90;;
7406;SDS011;3745;56.964;24.128;2023-04-03T00:55:39;0.97;;;0.97;;
7406;SDS011;3745;56.964;24.128;2023-04-03T00:58:09;5.07;;;1.27;;
7406;SDS011;3745;56.964;24.128;2023-04-03T01:00:37;1.47;;;1.03;;
7406;SDS011;3745;56.964;24.128;2023-04-03T01:03:08;2.80;;;1.00;;
7406;SDS011;3745;56.964;24.128;2023-04-03T01:05:34;1.33;;;0.80;;
7406;SDS011;3745;56.964;24.128;2023-04-03T01:08:00;1.67;;;0.80;;
7406;SDS011;3745;56.964;24.128;2023-04-03T01:10:36;1.00;;;1.00;;
7406;SDS011;3745;56.964;24.128;2023-04-03T01:13:02;1.77;;;1.10;;
7406;SDS011;3745;56.964;24.128;2023-04-03T01:15:44;1.20;;;1.03;;
7406;SDS011;3745;56.964;24.128;2023-04-03T01:18:10;2.97;;;1.30;;
7406;SDS011;3745;56.964;24.128;2023-04-03T01:25:56;2.87;;;1.63;;
7406;SDS011;3745;56.964;24.128;2023-04-03T01:28:24;2.00;;;0.90;;
7406;SDS011;3745;56.964;24.128;2023-04-03T01:33:23;4.53;;;1.30;;
7406;SDS011;3745;56.964;24.128;2023-04-03T01:35:49;1.27;;;1.17;;
7406;SDS011;3745;56.964;24.128;2023-04-03T01:38:15;2.73;;;1.00;;
7406;SDS011;3745;56.964;24.128;2023-04-03T01:40:41;3.33;;;0.83;;
7406;SDS011;3745;56.964;24.128;2023-04-03T01:43:06;1.07;;;1.03;;
7406;SDS011;3745;56.964;24.128;2023-04-03T01:45:32;3.00;;;1.20;;
7406;SDS011;3745;56.964;24.128;2023-04-03T01:47:58;1.40;;;1.30;;
7406;SDS011;3745;56.964;24.128;2023-04-03T01:50:24;1.50;;;1.10;;
7406;SDS011;3745;56.964;24.128;2023-04-03T01:52:49;1.10;;;1.10;;
7406;SDS011;3745;56.964;24.128;2023-04-03T01:55:15;1.60;;;1.40;;
7406;SDS011;3745;56.964;24.128;2023-04-03T01:57:44;1.03;;;1.03;;
7406;SDS011;3745;56.964;24.128;2023-04-03T02:00:10;3.47;;;1.20;;
7406;SDS011;3745;56.964;24.128;2023-04-03T02:02:37;2.93;;;1.03;;
7406;SDS011;3745;56.964;24.128;2023-04-03T02:05:03;2.83;;;1.73;;
7406;SDS011;3745;56.964;24.128;2023-04-03T02:07:33;2.70;;;1.40;;
7406;SDS011;3745;56.964;24.128;2023-04-03T02:09:58;2.37;;;1.70;;
7406;SDS011;3745;56.964;24.128;2023-04-03T02:12:25;1.40;;;1.30;;
7406;SDS011;3745;56.964;24.128;2023-04-03T02:14:50;1.50;;;1.40;;
7406;SDS011;3745;56.964;24.128;2023-04-03T02:17:16;1.40;;;1.30;;
7406;SDS011;3745;56.964;24.128;2023-04-03T02:19:43;2.13;;;1.30;;
7406;SDS011;3745;56.964;24.128;2023-04-03T02:22:09;3.47;;;1.37;;
7406;SDS011;3745;56.964;24.128;2023-04-03T02:24:34;2.43;;;1.33;;
7406;SDS011;3745;56.964;24.128;2023-04-03T02:27:00;5.50;;;1.30;;
7406;SDS011;3745;56.964;24.128;2023-04-03T02:29:29;2.50;;;1.50;;
7406;SDS011;3745;56.964;24.128;2023-04-03T02:31:55;2.03;;;1.40;;
7406;SDS011;3745;56.964;24.128;2023-04-03T02:34:21;1.93;;;1.10;;
7406;SDS011;3745;56.964;24.128;2023-04-03T02:36:47;1.50;;;1.40;;
7406;SDS011;3745;56.964;24.128;2023-04-03T02:39:12;4.00;;;1.40;;
7406;SDS011;3745;56.964;24.128;2023-04-03T02:41:38;1.73;;;1.10;;
7406;SDS011;3745;56.964;24.128;2023-04-03T02:44:05;2.20;;;1.50;;
7406;SDS011;3745;56.964;24.128;2023-04-03T02:46:32;1.37;;;1.27;;
7406;SDS011;3745;56.964;24.128;2023-04-03T02:48:58;2.40;;;1.00;;
7406;SDS011;3745;56.964;24.128;2023-04-03T02:51:24;2.20;;;1.47;;
7406;SDS011;3745;56.964;24.128;2023-04-03T02:53:50;1.70;;;1.17;;
7406;SDS011;3745;56.964;24.128;2023-04-03T02:56:16;1.30;;;1.23;;
7406;SDS011;3745;56.964;24.128;2023-04-03T02:58:43;1.70;;;1.60;;
7406;SDS011;3745;56.964;24.128;2023-04-03T03:01:10;1.97;;;1.50;;
7406;SDS011;3745;56.964;24.128;2023-04-03T03:03:36;2.97;;;1.47;;
7406;SDS011;3745;56.964;24.128;2023-04-03T03:06:08;1.80;;;1.40;;
7406;SDS011;3745;56.964;24.128;2023-04-03T03:08:36;2.87;;;1.43;;
7406;SDS011;3745;56.964;24.128;2023-04-03T03:11:02;2.00;;;1.80;;
7406;SDS011;3745;56.964;24.128;2023-04-03T03:13:29;1.27;;;1.17;;
7406;SDS011;3745;56.964;24.128;2023-04-03T03:15:55;0.93;;;0.93;;
7406;SDS011;3745;56.964;24.128;2023-04-03T03:18:23;1.60;;;1.50;;
7406;SDS011;3745;56.964;24.128;2023-04-03T03:20:53;1.73;;;1.63;;
7406;SDS011;3745;56.964;24.128;2023-04-03T03:23:23;2.57;;;1.60;;
7406;SDS011;3745;56.964;24.128;2023-04-03T03:25:55;2.77;;;1.60;;
7406;SDS011;3745;56.964;24.128;2023-04-03T03:28:22;2.30;;;1.67;;
7406;SDS011;3745;56.964;24.128;2023-04-03T03:30:48;2.30;;;1.60;;
7406;SDS011;3745;56.964;24.128;2023-04-03T03:33:13;1.67;;;1.57;;
7406;SDS011;3745;56.964;24.128;2023-04-03T03:35:39;2.60;;;1.80;;
7406;SDS011;3745;56.964;24.128;2023-04-03T03:38:05;1.70;;;1.40;;
7406;SDS011;3745;56.964;24.128;2023-04-03T03:40:31;1.90;;;1.40;;
7406;SDS011;3745;56.964;24.128;2023-04-03T03:42:57;4.60;;;1.70;;
7406;SDS011;3745;56.964;24.128;2023-04-03T03:45:22;2.43;;;1.43;;
7406;SDS011;3745;56.964;24.128;2023-04-03T03:47:48;2.87;;;1.50;;
7406;SDS011;3745;56.964;24.128;2023-04-03T03:50:17;2.93;;;1.80;;
7406;SDS011;3745;56.964;24.128;2023-04-03T03:52:42;1.90;;;1.80;;
7406;SDS011;3745;56.964;24.128;2023-04-03T03:55:08;2.47;;;1.67;;
7406;SDS011;3745;56.964;24.128;2023-04-03T03:57:33;3.67;;;1.83;;
7406;SDS011;3745;56.964;24.128;2023-04-03T04:00:08;2.43;;;1.97;;
7406;SDS011;3745;56.964;24.128;2023-04-03T04:02:46;2.77;;;1.80;;
7406;SDS011;3745;56.964;24.128;2023-04-03T04:05:12;1.87;;;1.67;;
7406;SDS011;3745;56.964;24.128;2023-04-03T04:07:38;1.70;;;1.60;;
7406;SDS011;3745;56.964;24.128;2023-04-03T04:10:04;2.03;;;1.87;;
7406;SDS011;3745;56.964;24.128;2023-04-03T04:12:30;6.23;;;2.30;;
7406;SDS011;3745;56.964;24.128;2023-04-03T04:14:56;2.80;;;2.00;;
7406;SDS011;3745;56.964;24.128;2023-04-03T04:17:24;2.97;;;2.30;;
7406;SDS011;3745;56.964;24.128;2023-04-03T04:19:50;5.63;;;2.10;;
7406;SDS011;3745;56.964;24.128;2023-04-03T04:22:15;3.07;;;2.60;;
7406;SDS011;3745;56.964;24.128;2023-04-03T04:24:41;5.50;;;2.70;;
7406;SDS011;3745;56.964;24.128;2023-04-03T04:27:12;4.70;;;2.60;;
7406;SDS011;3745;56.964;24.128;2023-04-03T04:29:38;3.63;;;2.97;;
7406;SDS011;3745;56.964;24.128;2023-04-03T04:32:03;4.70;;;2.53;;
7406;SDS011;3745;56.964;24.128;2023-04-03T04:34:29;3.03;;;2.60;;
7406;SDS011;3745;56.964;24.128;2023-04-03T04:36:55;4.20;;;2.30;;
7406;SDS011;3745;56.964;24.128;2023-04-03T04:39:20;2.67;;;2.20;;
7406;SDS011;3745;56.964;24.128;2023-04-03T04:41:49;2.40;;;2.20;;
7406;SDS011;3745;56.964;24.128;2023-04-03T04:44:15;7.27;;;2.23;;
7406;SDS011;3745;56.964;24.128;2023-04-03T04:46:46;1.90;;;1.80;;
7406;SDS011;3745;56.964;24.128;2023-04-03T04:49:15;3.27;;;1.90;;
7406;SDS011;3745;56.964;24.128;2023-04-03T04:51:40;3.73;;;1.87;;
7406;SDS011;3745;56.964;24.128;2023-04-03T04:54:19;3.33;;;2.30;;
7406;SDS011;3745;56.964;24.128;2023-04-03T04:56:45;4.57;;;2.13;;
7406;SDS011;3745;56.964;24.128;2023-04-03T04:59:11;3.33;;;1.60;;
7406;SDS011;3745;56.964;24.128;2023-04-03T05:01:39;2.83;;;2.00;;
7406;SDS011;3745;56.964;24.128;2023-04-03T05:04:05;9.07;;;2.13;;
7406;SDS011;3745;56.964;24.128;2023-04-03T05:06:31;1.67;;;1.57;;
7406;SDS011;3745;56.964;24.128;2023-04-03T05:08:57;3.13;;;1.70;;
7406;SDS011;3745;56.964;24.128;2023-04-03T05:11:25;4.83;;;1.70;;
7406;SDS011;3745;56.964;24.128;2023-04-03T05:13:56;1.60;;;1.50;;
7406;SDS011;3745;56.964;24.128;2023-04-03T05:16:25;2.23;;;1.73;;
7406;SDS011;3745;56.964;24.128;2023-04-03T05:18:51;3.33;;;1.93;;
7406;SDS011;3745;56.964;24.128;2023-04-03T05:21:16;2.50;;;1.80;;
7406;SDS011;3745;56.964;24.128;2023-04-03T05:23:43;4.43;;;1.93;;
7406;SDS011;3745;56.964;24.128;2023-04-03T05:26:11;3.13;;;1.87;;
7406;SDS011;3745;56.964;24.128;2023-04-03T05:28:37;2.70;;;1.43;;
7406;SDS011;3745;56.964;24.128;2023-04-03T05:31:05;2.37;;;1.53;;
7406;SDS011;3745;56.964;24.128;2023-04-03T05:33:31;3.90;;;1.57;;
7406;SDS011;3745;56.964;24.128;2023-04-03T05:36:01;2.70;;;1.63;;
7406;SDS011;3745;56.964;24.128;2023-04-03T05:38:33;3.37;;;2.03;;
7406;SDS011;3745;56.964;24.128;2023-04-03T05:40:59;1.70;;;1.60;;
7406;SDS011;3745;56.964;24.128;2023-04-03T05:43:25;1.63;;;1.53;;
7406;SDS011;3745;56.964;24.128;2023-04-03T05:45:51;3.97;;;1.83;;
7406;SDS011;3745;56.964;24.128;2023-04-03T05:48:22;3.43;;;1.60;;
7406;SDS011;3745;56.964;24.128;2023-04-03T05:50:48;3.57;;;1.30;;
7406;SDS011;3745;56.964;24.128;2023-04-03T05:53:21;1.47;;;1.37;;
7406;SDS011;3745;56.964;24.128;2023-04-03T05:55:52;2.80;;;2.20;;
7406;SDS011;3745;56.964;24.128;2023-04-03T05:58:20;3.47;;;1.90;;
7406;SDS011;3745;56.964;24.128;2023-04-03T06:00:46;2.23;;;1.70;;
7406;SDS011;3745;56.964;24.128;2023-04-03T06:03:12;2.53;;;1.57;;
7406;SDS011;3745;56.964;24.128;2023-04-03T06:05:43;6.37;;;3.17;;
7406;SDS011;3745;56.964;24.128;2023-04-03T06:08:15;3.07;;;2.00;;
7406;SDS011;3745;56.964;24.128;2023-04-03T06:10:41;6.00;;;1.83;;
7406;SDS011;3745;56.964;24.128;2023-04-03T06:13:07;3.70;;;2.03;;
7406;SDS011;3745;56.964;24.128;2023-04-03T06:15:33;2.27;;;1.70;;
7406;SDS011;3745;56.964;24.128;2023-04-03T06:18:05;4.70;;;2.00;;
7406;SDS011;3745;56.964;24.128;2023-04-03T06:20:35;14.83;;;3.03;;
7406;SDS011;3745;56.964;24.128;2023-04-03T06:23:00;6.73;;;2.03;;
7406;SDS011;3745;56.964;24.128;2023-04-03T06:25:26;5.33;;;1.90;;
7406;SDS011;3745;56.964;24.128;2023-04-03T06:27:52;1.50;;;1.40;;
7406;SDS011;3745;56.964;24.128;2023-04-03T06:30:32;4.43;;;1.40;;
7406;SDS011;3745;56.964;24.128;2023-04-03T06:33:03;3.57;;;2.50;;
7406;SDS011;3745;56.964;24.128;2023-04-03T06:35:35;3.10;;;1.60;;
7406;SDS011;3745;56.964;24.128;2023-04-03T06:38:03;5.03;;;1.93;;
7406;SDS011;3745;56.964;24.128;2023-04-03T06:40:34;3.07;;;2.30;;
7406;SDS011;3745;56.964;24.128;2023-04-03T06:43:06;3.60;;;1.97;;
7406;SDS011;3745;56.964;24.128;2023-04-03T06:45:35;2.85;;;1.60;;
7406;SDS011;3745;56.964;24.128;2023-04-03T06:48:01;5.13;;;2.00;;
7406;SDS011;3745;56.964;24.128;2023-04-03T06:50:27;4.20;;;1.95;;
7406;SDS011;3745;56.964;24.128;2023-04-03T06:52:52;9.80;;;1.98;;
7406;SDS011;3745;56.964;24.128;2023-04-03T06:55:18;2.38;;;1.50;;
7406;SDS011;3745;56.964;24.128;2023-04-03T06:57:52;2.58;;;1.77;;
7406;SDS011;3745;56.964;24.128;2023-04-03T07:00:18;2.40;;;1.50;;
7406;SDS011;3745;56.964;24.128;2023-04-03T07:02:47;3.30;;;1.90;;
7406;SDS011;3745;56.964;24.128;2023-04-03T07:05:13;9.93;;;2.33;;
7406;SDS011;3745;56.964;24.128;2023-04-03T07:07:39;9.77;;;2.33;;
7406;SDS011;3745;56.964;24.128;2023-04-03T07:10:08;2.93;;;1.43;;
7406;SDS011;3745;56.964;24.128;2023-04-03T07:12:40;3.27;;;1.60;;
7406;SDS011;3745;56.964;24.128;2023-04-03T07:15:10;1.97;;;1.50;;
7406;SDS011;3745;56.964;24.128;2023-04-03T07:17:41;2.87;;;1.50;;
7406;SDS011;3745;56.964;24.128;2023-04-03T07:20:07;3.77;;;1.80;;
7406;SDS011;3745;56.964;24.128;2023-04-03T07:22:33;3.70;;;1.83;;
7406;SDS011;3745;56.964;24.128;2023-04-03T07:25:02;5.03;;;1.63;;
7406;SDS011;3745;56.964;24.128;2023-04-03T07:27:29;3.23;;;1.70;;
7406;SDS011;3745;56.964;24.128;2023-04-03T07:30:00;4.93;;;1.70;;
7406;SDS011;3745;56.964;24.128;2023-04-03T07:32:29;2.63;;;1.67;;
7406;SDS011;3745;56.964;24.128;2023-04-03T07:34:54;4.40;;;2.30;;
7406;SDS011;3745;56.964;24.128;2023-04-03T07:37:20;7.93;;;1.83;;
7406;SDS011;3745;56.964;24.128;2023-04-03T07:39:48;6.43;;;2.10;;
7406;SDS011;3745;56.964;24.128;2023-04-03T07:42:14;3.17;;;2.10;;
7406;SDS011;3745;56.964;24.128;2023-04-03T07:44:40;11.30;;;2.23;;
7406;SDS011;3745;56.964;24.128;2023-04-03T07:47:09;3.03;;;1.80;;
7406;SDS011;3745;56.964;24.128;2023-04-03T07:49:41;3.40;;;1.40;;
7406;SDS011;3745;56.964;24.128;2023-04-03T07:52:11;9.40;;;1.70;;
7406;SDS011;3745;56.964;24.128;2023-04-03T07:54:40;12.50;;;1.83;;
7406;SDS011;3745;56.964;24.128;2023-04-03T07:57:09;3.53;;;1.80;;
7406;SDS011;3745;56.964;24.128;2023-04-03T07:59:35;2.15;;;2.00;;
7406;SDS011;3745;56.964;24.128;2023-04-03T08:02:01;5.93;;;2.30;;
7406;SDS011;3745;56.964;24.128;2023-04-03T08:04:33;7.22;;;1.98;;
7406;SDS011;3745;56.964;24.128;2023-04-03T08:06:58;8.30;;;2.70;;
7406;SDS011;3745;56.964;24.128;2023-04-03T08:09:27;2.37;;;2.00;;
7406;SDS011;3745;56.964;24.128;2023-04-03T08:11:53;6.33;;;2.20;;
7406;SDS011;3745;56.964;24.128;2023-04-03T08:14:21;6.97;;;2.60;;
7406;SDS011;3745;56.964;24.128;2023-04-03T08:16:49;1.83;;;1.60;;
7406;SDS011;3745;56.964;24.128;2023-04-03T08:19:18;5.03;;;2.00;;
7406;SDS011;3745;56.964;24.128;2023-04-03T08:21:44;7.35;;;2.50;;
7406;SDS011;3745;56.964;24.128;2023-04-03T08:24:10;6.97;;;2.17;;
7406;SDS011;3745;56.964;24.128;2023-04-03T08:26:36;5.03;;;2.00;;
7406;SDS011;3745;56.964;24.128;2023-04-03T08:29:08;6.40;;;1.90;;
7406;SDS011;3745;56.964;24.128;2023-04-03T08:31:42;4.25;;;1.60;;
7406;SDS011;3745;56.964;24.128;2023-04-03T08:34:08;11.93;;;1.95;;
7406;SDS011;3745;56.964;24.128;2023-04-03T08:36:36;3.90;;;1.95;;
7406;SDS011;3745;56.964;24.128;2023-04-03T08:39:02;2.33;;;1.65;;
7406;SDS011;3745;56.964;24.128;2023-04-03T08:41:44;6.25;;;1.67;;
7406;SDS011;3745;56.964;24.128;2023-04-03T08:44:18;3.90;;;2.10;;
7406;SDS011;3745;56.964;24.128;2023-04-03T08:46:56;7.57;;;2.40;;
7406;SDS011;3745;56.964;24.128;2023-04-03T08:49:42;6.55;;;1.90;;
7406;SDS011;3745;56.964;24.128;2023-04-03T08:52:20;10.88;;;2.20;;
7406;SDS011;3745;56.964;24.128;2023-04-03T08:58:21;3.38;;;1.52;;
7406;SDS011;3745;56.964;24.128;2023-04-03T09:00:57;6.93;;;1.73;;
7406;SDS011;3745;56.964;24.128;2023-04-03T09:03:32;5.60;;;1.67;;
7406;SDS011;3745;56.964;24.128;2023-04-03T09:08:58;5.72;;;2.05;;
7406;SDS011;3745;56.964;24.128;2023-04-03T09:11:55;6.05;;;2.08;;
7406;SDS011;3745;56.964;24.128;2023-04-03T09:23:09;5.53;;;2.15;;
7406;SDS011;3745;56.964;24.128;2023-04-03T09:25:51;2.97;;;1.70;;
7406;SDS011;3745;56.964;24.128;2023-04-03T09:28:24;2.13;;;1.60;;
7406;SDS011;3745;56.964;24.128;2023-04-03T09:30:50;2.93;;;1.63;;
7406;SDS011;3745;56.964;24.128;2023-04-03T09:33:15;6.30;;;1.30;;
7406;SDS011;3745;56.964;24.128;2023-04-03T09:35:48;5.63;;;1.83;;
7406;SDS011;3745;56.964;24.128;2023-04-03T09:38:18;5.65;;;2.15;;
7406;SDS011;3745;56.964;24.128;2023-04-03T09:41:12;10.57;;;1.85;;
7406;SDS011;3745;56.964;24.128;2023-04-03T09:43:39;3.83;;;1.52;;
7406;SDS011;3745;56.964;24.128;2023-04-03T09:46:30;3.65;;;1.52;;
7406;SDS011;3745;56.964;24.128;2023-04-03T09:49:05;6.78;;;1.50;;
7406;SDS011;3745;56.964;24.128;2023-04-03T09:51:31;5.40;;;1.60;;
7406;SDS011;3745;56.964;24.128;2023-04-03T09:53:57;8.70;;;2.15;;
7406;SDS011;3745;56.964;24.128;2023-04-03T09:56:27;9.57;;;1.90;;
7406;SDS011;3745;56.964;24.128;2023-04-03T09:59:08;3.57;;;1.70;;
7406;SDS011;3745;56.964;24.128;2023-04-03T10:01:41;1.58;;;1.20;;
7406;SDS011;3745;56.964;24.128;2023-04-03T10:04:22;5.63;;;1.85;;
7406;SDS011;3745;56.964;24.128;2023-04-03T10:06:49;7.63;;;1.90;;
7406;SDS011;3745;56.964;24.128;2023-04-03T10:09:20;3.30;;;2.47;;
7406;SDS011;3745;56.964;24.128;2023-04-03T10:12:02;8.15;;;1.95;;
7406;SDS011;3745;56.964;24.128;2023-04-03T10:14:40;3.83;;;1.60;;
7406;SDS011;3745;56.964;24.128;2023-04-03T10:20:42;1.92;;;1.55;;
7406;SDS011;3745;56.964;24.128;2023-04-03T10:31:16;9.65;;;2.13;;
7406;SDS011;3745;56.964;24.128;2023-04-03T10:37:18;3.53;;;1.83;;
7406;SDS011;3745;56.964;24.128;2023-04-03T10:43:16;3.80;;;2.17;;
7406;SDS011;3745;56.964;24.128;2023-04-03T10:45:57;8.75;;;3.20;;
7406;SDS011;3745;56.964;24.128;2023-04-03T10:48:37;6.38;;;2.92;;
7406;SDS011;3745;56.964;24.128;2023-04-03T10:51:28;8.27;;;3.03;;
7406;SDS011;3745;56.964;24.128;2023-04-03T10:54:08;3.00;;;2.00;;
7406;SDS011;3745;56.964;24.128;2023-04-03T11:01:45;6.78;;;1.40;;
7406;SDS011;3745;56.964;24.128;2023-04-03T11:04:16;4.88;;;2.08;;
7406;SDS011;3745;56.964;24.128;2023-04-03T11:06:46;6.07;;;1.40;;
7406;SDS011;3745;56.964;24.128;2023-04-03T11:09:49;3.85;;;1.30;;
7406;SDS011;3745;56.964;24.128;2023-04-03T11:14:43;10.02;;;2.20;;
7406;SDS011;3745;56.964;24.128;2023-04-03T11:19:52;6.60;;;1.58;;
7406;SDS011;3745;56.964;24.128;2023-04-03T11:24:55;3.90;;;1.25;;
7406;SDS011;3745;56.964;24.128;2023-04-03T11:27:33;2.17;;;1.00;;
7406;SDS011;3745;56.964;24.128;2023-04-03T11:30:19;4.60;;;1.50;;
7406;SDS011;3745;56.964;24.128;2023-04-03T11:35:48;2.95;;;1.70;;
7406;SDS011;3745;56.964;24.128;2023-04-03T11:38:33;9.10;;;1.85;;
7406;SDS011;3745;56.964;24.128;2023-04-03T11:41:08;3.80;;;1.75;;
7406;SDS011;3745;56.964;24.128;2023-04-03T11:52:54;9.18;;;1.48;;
7406;SDS011;3745;56.964;24.128;2023-04-03T12:13:34;9.52;;;1.60;;
7406;SDS011;3745;56.964;24.128;2023-04-03T12:16:00;1.58;;;0.93;;
7406;SDS011;3745;56.964;24.128;2023-04-03T12:43:20;2.58;;;1.02;;
7406;SDS011;3745;56.964;24.128;2023-04-03T12:45:51;2.47;;;1.45;;
7406;SDS011;3745;56.964;24.128;2023-04-03T12:48:38;5.15;;;1.00;;
7406;SDS011;3745;56.964;24.128;2023-04-03T12:53:57;1.88;;;1.23;;
7406;SDS011;3745;56.964;24.128;2023-04-03T12:56:43;4.63;;;1.40;;
7406;SDS011;3745;56.964;24.128;2023-04-03T12:59:13;10.93;;;1.52;;
7406;SDS011;3745;56.964;24.128;2023-04-03T13:01:41;3.22;;;1.40;;
7406;SDS011;3745;56.964;24.128;2023-04-03T13:04:08;3.72;;;1.15;;
7406;SDS011;3745;56.964;24.128;2023-04-03T13:06:41;12.32;;;1.58;;
7406;SDS011;3745;56.964;24.128;2023-04-03T13:11:57;7.63;;;1.70;;
7406;SDS011;3745;56.964;24.128;2023-04-03T13:14:29;3.10;;;1.35;;
7406;SDS011;3745;56.964;24.128;2023-04-03T13:17:14;1.40;;;1.23;;
7406;SDS011;3745;56.964;24.128;2023-04-03T13:19:41;7.43;;;1.80;;
7406;SDS011;3745;56.964;24.128;2023-04-03T13:22:12;7.40;;;2.15;;
7406;SDS011;3745;56.964;24.128;2023-04-03T13:24:51;4.97;;;1.70;;
7406;SDS011;3745;56.964;24.128;2023-04-03T13:27:19;9.63;;;2.13;;
7406;SDS011;3745;56.964;24.128;2023-04-03T13:29:49;11.43;;;1.90;;
7406;SDS011;3745;56.964;24.128;2023-04-03T13:32:20;12.63;;;2.25;;
7406;SDS011;3745;56.964;24.128;2023-04-03T13:34:48;4.05;;;1.73;;
7406;SDS011;3745;56.964;24.128;2023-04-03T13:37:30;6.35;;;2.13;;
7406;SDS011;3745;56.964;24.128;2023-04-03T13:40:11;6.43;;;1.73;;
7406;SDS011;3745;56.964;24.128;2023-04-03T13:42:38;9.27;;;1.80;;
7406;SDS011;3745;56.964;24.128;2023-04-03T13:47:41;4.63;;;1.58;;
7406;SDS011;3745;56.964;24.128;2023-04-03T13:52:45;6.70;;;2.60;;
7406;SDS011;3745;56.964;24.128;2023-04-03T13:55:22;4.82;;;2.17;;
7406;SDS011;3745;56.964;24.128;2023-04-03T14:00:47;3.25;;;1.42;;
7406;SDS011;3745;56.964;24.128;2023-04-03T14:03:16;5.40;;;2.30;;
7406;SDS011;3745;56.964;24.128;2023-04-03T14:05:53;5.82;;;2.10;;
7406;SDS011;3745;56.964;24.128;2023-04-03T14:08:19;3.45;;;1.92;;
7406;SDS011;3745;56.964;24.128;2023-04-03T14:10:46;4.47;;;1.90;;
7406;SDS011;3745;56.964;24.128;2023-04-03T14:13:15;2.03;;;1.75;;
7406;SDS011;3745;56.964;24.128;2023-04-03T14:15:42;4.65;;;1.70;;
7406;SDS011;3745;56.964;24.128;2023-04-03T14:18:28;2.27;;;1.30;;
7406;SDS011;3745;56.964;24.128;2023-04-03T14:20:54;3.83;;;1.50;;
7406;SDS011;3745;56.964;24.128;2023-04-03T14:23:20;10.23;;;1.90;;
7406;SDS011;3745;56.964;24.128;2023-04-03T14:25:48;5.38;;;1.52;;
7406;SDS011;3745;56.964;24.128;2023-04-03T14:28:18;15.00;;;1.85;;
7406;SDS011;3745;56.964;24.128;2023-04-03T14:30:49;6.60;;;1.85;;
7406;SDS011;3745;56.964;24.128;2023-04-03T14:33:17;6.32;;;1.75;;
7406;SDS011;3745;56.964;24.128;2023-04-03T14:35:47;4.35;;;1.73;;
7406;SDS011;3745;56.964;24.128;2023-04-03T14:38:27;5.65;;;1.45;;
7406;SDS011;3745;56.964;24.128;2023-04-03T14:40:54;3.20;;;2.50;;
7406;SDS011;3745;56.964;24.128;2023-04-03T14:43:20;9.38;;;2.00;;
7406;SDS011;3745;56.964;24.128;2023-04-03T14:45:47;5.22;;;2.40;;
7406;SDS011;3745;56.964;24.128;2023-04-03T14:48:21;5.60;;;1.60;;
7406;SDS011;3745;56.964;24.128;2023-04-03T14:50:50;3.37;;;1.60;;
7406;SDS011;3745;56.964;24.128;2023-04-03T14:53:19;3.75;;;1.80;;
7406;SDS011;3745;56.964;24.128;2023-04-03T14:55:52;4.07;;;1.40;;
7406;SDS011;3745;56.964;24.128;2023-04-03T14:58:20;3.28;;;1.85;;
7406;SDS011;3745;56.964;24.128;2023-04-03T15:00:48;9.25;;;2.38;;
7406;SDS011;3745;56.964;24.128;2023-04-03T15:03:18;3.83;;;2.35;;
7406;SDS011;3745;56.964;24.128;2023-04-03T15:05:52;4.35;;;2.20;;
7406;SDS011;3745;56.964;24.128;2023-04-03T15:08:22;2.83;;;2.20;;
7406;SDS011;3745;56.964;24.128;2023-04-03T15:10:56;7.78;;;2.47;;
7406;SDS011;3745;56.964;24.128;2023-04-03T15:13:22;3.33;;;2.30;;
7406;SDS011;3745;56.964;24.128;2023-04-03T15:15:49;3.97;;;2.10;;
7406;SDS011;3745;56.964;24.128;2023-04-03T15:18:22;2.38;;;2.25;;
7406;SDS011;3745;56.964;24.128;2023-04-03T15:20:51;4.60;;;2.33;;
7406;SDS011;3745;56.964;24.128;2023-04-03T15:23:20;4.32;;;2.08;;
7406;SDS011;3745;56.964;24.128;2023-04-03T15:25:53;3.13;;;2.63;;
7406;SDS011;3745;56.964;24.128;2023-04-03T15:30:55;4.97;;;2.38;;
7406;SDS011;3745;56.964;24.128;2023-04-03T15:33:21;3.30;;;2.53;;
7406;SDS011;3745;56.964;24.128;2023-04-03T15:35:48;3.40;;;2.65;;
7406;SDS011;3745;56.964;24.128;2023-04-03T15:38:13;3.55;;;2.38;;
7406;SDS011;3745;56.964;24.128;2023-04-03T15:40:40;6.43;;;2.47;;
7406;SDS011;3745;56.964;24.128;2023-04-03T15:43:12;5.72;;;3.08;;
7406;SDS011;3745;56.964;24.128;2023-04-03T15:45:38;5.00;;;3.50;;
7406;SDS011;3745;56.964;24.128;2023-04-03T15:48:07;5.25;;;2.63;;
7406;SDS011;3745;56.964;24.128;2023-04-03T15:50:33;5.75;;;2.88;;
7406;SDS011;3745;56.964;24.128;2023-04-03T15:53:02;4.63;;;2.85;;
7406;SDS011;3745;56.964;24.128;2023-04-03T15:55:29;3.95;;;1.90;;
7406;SDS011;3745;56.964;24.128;2023-04-03T15:57:59;5.07;;;2.30;;
7406;SDS011;3745;56.964;24.128;2023-04-03T16:00:25;5.63;;;2.47;;
7406;SDS011;3745;56.964;24.128;2023-04-03T16:03:11;5.20;;;2.00;;
7406;SDS011;3745;56.964;24.128;2023-04-03T16:05:40;7.33;;;2.90;;
7406;SDS011;3745;56.964;24.128;2023-04-03T16:08:06;2.90;;;1.97;;
7406;SDS011;3745;56.964;24.128;2023-04-03T16:10:33;13.13;;;2.33;;
7406;SDS011;3745;56.964;24.128;2023-04-03T16:12:59;3.07;;;1.63;;
7406;SDS011;3745;56.964;24.128;2023-04-03T16:15:25;6.67;;;2.67;;
7406;SDS011;3745;56.964;24.128;2023-04-03T16:17:52;3.38;;;2.88;;
7406;SDS011;3745;56.964;24.128;2023-04-03T16:20:18;3.13;;;2.67;;
7406;SDS011;3745;56.964;24.128;2023-04-03T16:22:45;3.87;;;2.33;;
7406;SDS011;3745;56.964;24.128;2023-04-03T16:25:11;4.20;;;2.20;;
7406;SDS011;3745;56.964;24.128;2023-04-03T16:27:37;4.38;;;2.30;;
7406;SDS011;3745;56.964;24.128;2023-04-03T16:30:03;2.20;;;2.00;;
7406;SDS011;3745;56.964;24.128;2023-04-03T16:32:30;3.07;;;2.03;;
7406;SDS011;3745;56.964;24.128;2023-04-03T16:34:57;3.13;;;2.30;;
7406;SDS011;3745;56.964;24.128;2023-04-03T16:37:23;2.43;;;1.90;;
7406;SDS011;3745;56.964;24.128;2023-04-03T16:39:49;2.60;;;2.40;;
7406;SDS011;3745;56.964;24.128;2023-04-03T16:42:18;1.80;;;1.70;;
7406;SDS011;3745;56.964;24.128;2023-04-03T16:44:44;5.30;;;2.10;;
7406;SDS011;3745;56.964;24.128;2023-04-03T16:47:10;2.53;;;1.85;;
7406;SDS011;3745;56.964;24.128;2023-04-03T16:49:35;3.00;;;1.80;;
7406;SDS011;3745;56.964;24.128;2023-04-03T16:52:02;4.77;;;2.57;;
7406;SDS011;3745;56.964;24.128;2023-04-03T16:54:29;3.67;;;2.00;;
7406;SDS011;3745;56.964;24.128;2023-04-03T16:56:56;3.93;;;2.43;;
7406;SDS011;3745;56.964;24.128;2023-04-03T16:59:22;3.87;;;2.30;;
7406;SDS011;3745;56.964;24.128;2023-04-03T17:01:47;5.80;;;1.90;;
7406;SDS011;3745;56.964;24.128;2023-04-03T17:04:13;3.83;;;2.30;;
7406;SDS011;3745;56.964;24.128;2023-04-03T17:06:39;4.20;;;2.53;;
7406;SDS011;3745;56.964;24.128;2023-04-03T17:09:05;3.37;;;2.27;;
7406;SDS011;3745;56.964;24.128;2023-04-03T17:11:31;5.93;;;2.60;;
7406;SDS011;3745;56.964;24.128;2023-04-03T17:13:57;4.03;;;1.90;;
7406;SDS011;3745;56.964;24.128;2023-04-03T17:16:24;3.20;;;2.10;;
7406;SDS011;3745;56.964;24.128;2023-04-03T17:18:51;2.23;;;1.90;;